Time;durP1;ratioP1;P1;durP2;ratioP2;P2;SDS_P1;SDS_P2;PMS_P1;PMS_P2;Temp;Humidity;BMP_temperature;BMP_pressure;BME280_temperature;BME280_humidity;BME280_pressure;Samples;Min_cycle;Max_cycle;Signal;HPM_P1;HPM_P2
2023/06/10 00:01:41;;;;;;;13.88;4.57;;;14.10;92.20;;;;;;5001225;28;20030;-68
2023/06/10 00:04:06;;;;;;;10.80;4.18;;;14.10;92.50;;;;;;5004283;28;20094;-68
2023/06/10 00:06:35;;;;;;;12.73;4.70;;;14.00;92.50;;;;;;5002422;28;20395;-68
2023/06/10 00:09:05;;;;;;;15.00;4.65;;;14.00;92.80;;;;;;4999007;28;20346;-67
2023/06/10 00:11:33;;;;;;;11.50;4.68;;;14.00;92.80;;;;;;5005730;28;20129;-67
2023/06/10 00:13:59;;;;;;;15.25;5.07;;;14.00;92.70;;;;;;5003528;28;20133;-68
2023/06/10 00:16:26;;;;;;;10.15;4.13;;;13.90;92.80;;;;;;5009213;28;20041;-68
2023/06/10 00:18:51;;;;;;;11.50;4.30;;;13.80;93.20;;;;;;5004493;28;20208;-68
2023/06/10 00:21:18;;;;;;;13.35;4.35;;;13.80;93.50;;;;;;5000417;28;20558;-68
2023/06/10 00:23:44;;;;;;;13.38;5.00;;;13.80;93.30;;;;;;5001157;28;20065;-67
2023/06/10 00:26:10;;;;;;;18.73;5.00;;;13.80;93.40;;;;;;5011054;28;20487;-68
2023/06/10 00:28:35;;;;;;;10.88;4.47;;;13.70;93.30;;;;;;5008875;28;20404;-69
2023/06/10 00:31:01;;;;;;;11.57;4.68;;;13.60;93.30;;;;;;5013527;28;20029;-68
2023/06/10 00:33:27;;;;;;;10.88;5.10;;;13.60;93.60;;;;;;5002262;28;20038;-68
2023/06/10 00:35:53;;;;;;;19.08;5.18;;;13.60;93.60;;;;;;5004094;28;20030;-69
2023/06/10 00:38:18;;;;;;;11.60;4.55;;;13.50;94.20;;;;;;4995228;28;20104;-68
2023/06/10 00:40:44;;;;;;;17.33;5.35;;;13.50;94.20;;;;;;5001653;28;20045;-67
2023/06/10 00:43:10;;;;;;;12.35;5.07;;;13.50;94.20;;;;;;5010227;28;20425;-68
2023/06/10 00:45:35;;;;;;;14.10;5.68;;;13.50;94.40;;;;;;5003676;28;20026;-69
2023/06/10 00:48:01;;;;;;;15.68;5.60;;;13.60;94.70;;;;;;5008482;28;20440;-68
2023/06/10 00:50:27;;;;;;;14.88;5.47;;;13.80;94.70;;;;;;5003604;28;20049;-68
2023/06/10 00:52:54;;;;;;;14.30;6.07;;;14.00;94.70;;;;;;5008736;28;20434;-68
2023/06/10 00:55:20;;;;;;;15.95;6.35;;;14.00;94.40;;;;;;5001870;28;20026;-68
2023/06/10 00:57:48;;;;;;;14.98;5.40;;;14.10;94.00;;;;;;5012743;28;20525;-69
2023/06/10 01:00:15;;;;;;;12.52;5.70;;;14.20;94.00;;;;;;5002098;28;20166;-69
2023/06/10 01:02:40;;;;;;;14.00;5.05;;;14.10;93.40;;;;;;5007997;28;20090;-69
2023/06/10 01:05:07;;;;;;;11.80;4.80;;;14.00;93.30;;;;;;5009781;28;20156;-69
2023/06/10 01:08:18;;;;;;;12.43;4.93;;;14.00;93.10;;;;;;5008226;28;20068;-71
2023/06/10 01:10:51;;;;;;;11.05;5.53;;;13.80;93.30;;;;;;5003469;28;20225;-68
2023/06/10 01:13:17;;;;;;;13.30;4.75;;;13.70;93.10;;;;;;5006788;28;20102;-68
2023/06/10 01:15:43;;;;;;;10.35;4.47;;;13.60;93.10;;;;;;5007329;28;20038;-69
2023/06/10 01:18:10;;;;;;;11.25;4.60;;;13.50;93.10;;;;;;5007645;28;20029;-68
2023/06/10 01:20:41;;;;;;;20.30;4.70;;;13.40;93.40;;;;;;5004003;28;20446;-68
2023/06/10 01:23:07;;;;;;;12.20;4.88;;;13.30;93.20;;;;;;5009605;28;20038;-68
2023/06/10 01:25:36;;;;;;;12.07;4.55;;;13.20;93.40;;;;;;5008854;28;20041;-68
2023/06/10 01:28:13;;;;;;;13.63;4.90;;;13.20;93.40;;;;;;5009955;28;20140;-67
2023/06/10 01:31:07;;;;;;;10.35;4.68;;;13.10;93.10;;;;;;5010136;28;20108;-68
2023/06/10 01:33:36;;;;;;;10.95;4.43;;;13.00;93.30;;;;;;5007157;28;20555;-67
2023/06/10 01:36:03;;;;;;;9.35;4.47;;;13.00;93.60;;;;;;5004078;28;20070;-67
2023/06/10 01:38:32;;;;;;;13.07;4.57;;;12.90;93.70;;;;;;5006249;28;20034;-69
2023/06/10 01:40:58;;;;;;;12.98;4.60;;;12.80;93.60;;;;;;5011428;28;20120;-67
2023/06/10 01:43:24;;;;;;;19.15;5.10;;;12.80;93.90;;;;;;5007081;28;20479;-67
2023/06/10 01:45:50;;;;;;;11.63;4.55;;;12.70;94.00;;;;;;5006531;28;20097;-68
2023/06/10 01:48:15;;;;;;;12.07;5.20;;;12.60;94.00;;;;;;5003101;28;20556;-68
2023/06/10 01:50:41;;;;;;;12.10;5.05;;;12.60;94.20;;;;;;5005619;28;20461;-68
2023/06/10 01:53:06;;;;;;;13.15;5.53;;;12.60;93.90;;;;;;5002751;28;20068;-68
2023/06/10 01:55:32;;;;;;;8.15;4.75;;;12.50;94.10;;;;;;5005794;28;20041;-68
2023/06/10 01:57:57;;;;;;;13.68;4.75;;;12.50;94.20;;;;;;5010012;28;20034;-68
2023/06/10 02:00:22;;;;;;;10.18;4.35;;;12.50;94.20;;;;;;5004886;28;20104;-68
2023/06/10 02:02:48;;;;;;;16.70;5.07;;;12.50;94.00;;;;;;5007209;28;20411;-69
2023/06/10 02:05:14;;;;;;;14.05;5.10;;;12.40;93.90;;;;;;5014774;28;20045;-68
2023/06/10 02:07:39;;;;;;;10.27;4.55;;;12.30;93.80;;;;;;5011686;28;20045;-68
2023/06/10 02:10:06;;;;;;;10.45;4.47;;;12.30;94.00;;;;;;5005562;28;20038;-67
2023/06/10 02:12:31;;;;;;;15.43;4.95;;;12.30;94.30;;;;;;5006791;28;20065;-67
2023/06/10 02:14:57;;;;;;;15.65;4.78;;;12.40;94.30;;;;;;5004104;28;20045;-70
2023/06/10 02:17:23;;;;;;;19.05;5.30;;;12.60;94.20;;;;;;5004604;28;20030;-69
2023/06/10 02:19:52;;;;;;;18.52;5.25;;;12.70;94.10;;;;;;5002565;28;20060;-69
2023/06/10 02:22:23;;;;;;;17.20;5.22;;;12.80;93.70;;;;;;5002190;28;20052;-69
2023/06/10 02:24:48;;;;;;;12.75;4.60;;;12.90;93.30;;;;;;5007798;28;20025;-70
2023/06/10 02:27:17;;;;;;;10.50;4.20;;;12.80;92.90;;;;;;5006149;28;20131;-68
2023/06/10 02:29:43;;;;;;;10.57;4.38;;;12.90;92.80;;;;;;5004189;28;20030;-67
2023/06/10 02:32:09;;;;;;;13.63;4.53;;;13.00;92.50;;;;;;5005333;28;20091;-68
2023/06/10 02:34:36;;;;;;;11.70;3.92;;;13.00;92.30;;;;;;5005411;28;20054;-67
2023/06/10 02:37:02;;;;;;;14.70;4.65;;;13.10;92.00;;;;;;5001382;28;20029;-69
2023/06/10 02:39:28;;;;;;;10.60;4.30;;;13.00;91.90;;;;;;5004066;28;20075;-68
2023/06/10 02:41:54;;;;;;;11.27;4.07;;;13.10;91.70;;;;;;5004568;28;20325;-68
2023/06/10 02:44:20;;;;;;;10.90;4.05;;;13.10;91.60;;;;;;5007985;28;20381;-68
2023/06/10 02:46:45;;;;;;;15.80;4.25;;;13.10;91.60;;;;;;5003300;28;20033;-70
2023/06/10 02:49:11;;;;;;;11.20;4.22;;;13.20;91.40;;;;;;5004415;28;20037;-65
2023/06/10 02:51:37;;;;;;;9.65;3.88;;;13.10;91.10;;;;;;5003526;28;20037;-69
2023/06/10 02:54:03;;;;;;;12.57;3.80;;;13.10;91.00;;;;;;5003922;28;20018;-68
2023/06/10 02:56:28;;;;;;;17.50;3.60;;;13.10;90.90;;;;;;5004352;28;20102;-68
2023/06/10 02:58:54;;;;;;;11.07;3.95;;;13.10;90.90;;;;;;5012123;28;20148;-69
2023/06/10 03:01:20;;;;;;;9.40;3.33;;;13.20;90.70;;;;;;4999606;28;20102;-68
2023/06/10 03:03:46;;;;;;;8.75;3.60;;;13.20;90.70;;;;;;5003523;28;20053;-69
2023/06/10 03:06:12;;;;;;;13.23;3.95;;;13.20;90.50;;;;;;5009285;28;20022;-68
2023/06/10 03:08:38;;;;;;;11.00;3.35;;;13.00;90.50;;;;;;4997300;28;20117;-70
2023/06/10 03:11:03;;;;;;;9.05;3.33;;;13.10;90.70;;;;;;5002712;28;20026;-68
2023/06/10 03:13:29;;;;;;;8.63;3.63;;;13.10;90.40;;;;;;5004807;28;20453;-69
2023/06/10 03:15:54;;;;;;;9.68;3.83;;;13.10;90.50;;;;;;5004686;28;20034;-70
2023/06/10 03:18:20;;;;;;;10.27;3.15;;;13.10;90.40;;;;;;4998368;28;20022;-69
2023/06/10 03:20:46;;;;;;;11.60;3.67;;;13.10;90.30;;;;;;5000461;28;20030;-69
2023/06/10 03:23:11;;;;;;;9.20;3.47;;;13.10;90.20;;;;;;5002694;28;20056;-69
2023/06/10 03:25:37;;;;;;;8.85;3.40;;;13.10;90.30;;;;;;5001925;28;20029;-71
2023/06/10 03:28:02;;;;;;;11.05;3.75;;;13.10;90.30;;;;;;5006380;28;20775;-68
2023/06/10 03:30:29;;;;;;;11.55;3.78;;;13.10;90.30;;;;;;5006963;28;20414;-68
2023/06/10 03:32:54;;;;;;;8.07;3.28;;;13.10;90.10;;;;;;5007597;28;20025;-68
2023/06/10 03:35:20;;;;;;;12.52;3.65;;;13.10;90.10;;;;;;5007075;28;20069;-69
2023/06/10 03:37:46;;;;;;;10.55;3.38;;;13.20;89.90;;;;;;5001549;28;20159;-69
2023/06/10 03:40:11;;;;;;;8.73;3.17;;;13.20;89.80;;;;;;5000330;28;20057;-69
2023/06/10 03:42:37;;;;;;;8.60;3.42;;;13.20;89.60;;;;;;5004075;28;20106;-69
2023/06/10 03:45:04;;;;;;;10.07;3.10;;;13.10;89.90;;;;;;5003608;28;20124;-70
2023/06/10 03:47:37;;;;;;;6.50;3.08;;;13.10;89.90;;;;;;5007025;28;20034;-68
2023/06/10 03:50:06;;;;;;;10.27;3.10;;;13.20;89.70;;;;;;5013399;28;20033;-69
2023/06/10 03:52:32;;;;;;;11.32;3.30;;;13.10;89.80;;;;;;5004607;28;20066;-68
2023/06/10 03:54:57;;;;;;;9.80;3.25;;;13.30;89.90;;;;;;5003887;28;20062;-69
2023/06/10 03:57:23;;;;;;;8.25;2.92;;;13.20;89.60;;;;;;4999140;28;20045;-69
2023/06/10 03:59:48;;;;;;;8.18;3.10;;;13.40;89.50;;;;;;4998330;28;20030;-68
2023/06/10 04:02:14;;;;;;;8.48;3.10;;;13.50;89.20;;;;;;4994738;28;20046;-70
2023/06/10 04:04:40;;;;;;;9.55;3.33;;;13.50;89.20;;;;;;5003637;28;20080;-68
2023/06/10 04:07:06;;;;;;;12.20;3.10;;;13.50;88.80;;;;;;5002510;28;20034;-69
2023/06/10 04:09:31;;;;;;;12.23;3.30;;;13.60;88.80;;;;;;5008725;28;20449;-68
2023/06/10 04:11:57;;;;;;;10.48;3.25;;;13.60;88.50;;;;;;5005485;28;20022;-70
2023/06/10 04:14:23;;;;;;;10.20;3.40;;;13.50;88.60;;;;;;5006805;28;20429;-68
2023/06/10 04:16:50;;;;;;;10.45;3.15;;;13.50;89.00;;;;;;5003410;28;20024;-68
2023/06/10 04:19:16;;;;;;;8.68;3.03;;;13.50;88.80;;;;;;5002340;28;20045;-69
2023/06/10 04:21:42;;;;;;;12.43;3.38;;;13.50;88.50;;;;;;5006812;28;20058;-70
2023/06/10 04:24:07;;;;;;;8.95;3.20;;;13.50;88.70;;;;;;5007128;28;20041;-70
2023/06/10 04:26:34;;;;;;;10.35;2.90;;;13.50;88.60;;;;;;5004111;28;20121;-69
2023/06/10 04:29:00;;;;;;;9.90;3.00;;;13.70;88.40;;;;;;5005081;28;20070;-69
2023/06/10 04:31:25;;;;;;;8.07;2.95;;;13.70;88.30;;;;;;5005971;28;20421;-67
2023/06/10 04:33:51;;;;;;;10.45;3.40;;;13.70;88.10;;;;;;5003214;28;20045;-68
2023/06/10 04:36:17;;;;;;;10.95;3.10;;;13.80;87.80;;;;;;5002813;28;20048;-68
2023/06/10 04:38:42;;;;;;;8.30;3.22;;;13.80;87.50;;;;;;5001087;28;20429;-69
2023/06/10 04:41:08;;;;;;;7.07;2.90;;;13.80;87.40;;;;;;5006498;28;20420;-68
2023/06/10 04:43:33;;;;;;;8.95;2.90;;;13.70;87.70;;;;;;5015869;28;20034;-68
2023/06/10 04:45:59;;;;;;;6.82;2.55;;;13.70;87.70;;;;;;5012894;28;20041;-68
2023/06/10 04:48:25;;;;;;;9.70;3.05;;;13.70;88.00;;;;;;5017231;28;20473;-67
2023/06/10 04:50:50;;;;;;;10.10;3.17;;;14.00;87.70;;;;;;5002984;28;20350;-67
2023/06/10 04:53:16;;;;;;;9.45;2.80;;;14.00;87.60;;;;;;5008429;28;20403;-68
2023/06/10 04:55:42;;;;;;;9.63;2.85;;;14.00;86.70;;;;;;5023749;28;20052;-68
2023/06/10 04:58:07;;;;;;;9.32;3.15;;;14.10;87.20;;;;;;5021735;28;20457;-67
2023/06/10 05:00:33;;;;;;;8.85;2.90;;;14.10;87.00;;;;;;5010739;28;20361;-68
2023/06/10 05:02:58;;;;;;;8.68;3.05;;;14.20;86.80;;;;;;5010346;28;20058;-67
2023/06/10 05:05:24;;;;;;;7.43;2.90;;;14.30;86.60;;;;;;5004070;28;20113;-65
2023/06/10 05:07:49;;;;;;;9.20;2.70;;;14.50;86.40;;;;;;5014377;28;20030;-66
2023/06/10 05:10:15;;;;;;;7.93;2.72;;;14.60;86.40;;;;;;5003594;28;20076;-67
2023/06/10 05:12:41;;;;;;;6.93;2.50;;;14.50;86.10;;;;;;5007147;28;20033;-66
2023/06/10 05:15:07;;;;;;;9.10;2.88;;;14.40;85.40;;;;;;5000412;28;20034;-68
2023/06/10 05:17:33;;;;;;;10.80;3.47;;;14.40;86.00;;;;;;5005012;28;20042;-67
2023/06/10 05:19:58;;;;;;;9.40;2.90;;;14.40;85.50;;;;;;5006482;28;20362;-66
2023/06/10 05:22:24;;;;;;;10.73;3.00;;;14.60;85.60;;;;;;5006912;28;20040;-66
2023/06/10 05:24:50;;;;;;;8.27;2.60;;;14.70;85.20;;;;;;5004772;28;20495;-66
2023/06/10 05:27:16;;;;;;;11.02;3.05;;;14.70;84.90;;;;;;5006274;28;20153;-67
2023/06/10 05:29:42;;;;;;;10.70;2.42;;;14.70;84.40;;;;;;5005665;28;20131;-68
2023/06/10 05:32:08;;;;;;;6.82;2.80;;;14.80;84.70;;;;;;4998351;28;20037;-67
2023/06/10 05:34:33;;;;;;;9.15;3.13;;;14.90;84.60;;;;;;5003764;28;20099;-67
2023/06/10 05:36:59;;;;;;;8.52;3.00;;;15.00;84.30;;;;;;5005626;28;20521;-69
2023/06/10 05:39:25;;;;;;;7.32;2.58;;;15.00;84.30;;;;;;4998574;28;20049;-66
2023/06/10 05:41:50;;;;;;;10.15;3.22;;;15.00;84.70;;;;;;5008181;28;20025;-67
2023/06/10 05:44:16;;;;;;;7.60;2.53;;;14.90;84.50;;;;;;5003101;28;20422;-68
2023/06/10 05:46:41;;;;;;;7.15;2.97;;;14.80;84.60;;;;;;5001426;28;20033;-70
2023/06/10 05:49:07;;;;;;;9.05;3.10;;;15.00;84.30;;;;;;5006511;28;20029;-67
2023/06/10 05:51:32;;;;;;;9.40;2.90;;;15.30;84.00;;;;;;5010543;28;20129;-68
2023/06/10 05:53:57;;;;;;;9.38;3.13;;;15.20;83.80;;;;;;5007718;28;20339;-67
2023/06/10 05:56:23;;;;;;;6.35;2.40;;;15.30;82.90;;;;;;5013277;28;20126;-66
2023/06/10 05:58:49;;;;;;;7.00;2.83;;;15.30;83.10;;;;;;5003064;28;20037;-67
2023/06/10 06:01:15;;;;;;;8.32;2.50;;;15.50;82.60;;;;;;4993854;28;20119;-66
2023/06/10 06:03:40;;;;;;;8.85;2.92;;;15.70;82.30;;;;;;5001974;28;20030;-67
2023/06/10 06:06:06;;;;;;;8.05;2.90;;;15.50;81.80;;;;;;5005438;28;20103;-67
2023/06/10 06:08:32;;;;;;;8.75;3.15;;;15.40;82.80;;;;;;5002121;28;20442;-67
2023/06/10 06:10:57;;;;;;;7.97;2.75;;;15.60;82.80;;;;;;5011827;28;20421;-67
2023/06/10 06:13:23;;;;;;;9.10;2.80;;;15.70;82.30;;;;;;5006469;28;20137;-68
2023/06/10 06:15:49;;;;;;;5.28;2.55;;;15.70;82.30;;;;;;5004170;28;20489;-66
2023/06/10 06:18:15;;;;;;;8.77;2.58;;;16.00;82.00;;;;;;4999883;28;20030;-66
2023/06/10 06:20:40;;;;;;;8.70;2.95;;;16.10;80.30;;;;;;5003963;28;20188;-66
2023/06/10 06:23:08;;;;;;;7.43;2.83;;;16.30;81.30;;;;;;5002327;28;20474;-67
2023/06/10 06:25:35;;;;;;;8.15;2.50;;;16.00;80.90;;;;;;5007561;28;20128;-66
2023/06/10 06:28:01;;;;;;;9.32;2.72;;;16.10;81.40;;;;;;5009248;28;20414;-66
2023/06/10 06:30:26;;;;;;;8.27;3.05;;;16.20;80.80;;;;;;5001772;28;20133;-67
2023/06/10 06:32:52;;;;;;;11.20;2.63;;;16.30;80.70;;;;;;5005156;28;20116;-66
2023/06/10 06:35:17;;;;;;;8.57;2.80;;;16.40;81.00;;;;;;4998155;28;20167;-73
2023/06/10 06:37:43;;;;;;;8.70;2.20;;;16.20;80.30;;;;;;5001059;28;20107;-65
2023/06/10 06:40:08;;;;;;;5.85;2.47;;;16.50;80.10;;;;;;5009934;28;20160;-66
2023/06/10 06:42:34;;;;;;;9.30;2.90;;;16.80;80.30;;;;;;5016581;28;20044;-66
2023/06/10 06:44:59;;;;;;;12.35;2.88;;;17.10;79.20;;;;;;5005199;28;20030;-68
2023/06/10 06:47:26;;;;;;;10.60;2.92;;;17.20;77.70;;;;;;5007994;28;20033;-66
2023/06/10 06:49:52;;;;;;;7.63;2.80;;;17.30;79.50;;;;;;5006745;28;20026;-66
2023/06/10 06:52:17;;;;;;;9.40;2.55;;;17.50;79.10;;;;;;5004675;28;20082;-68
2023/06/10 06:54:43;;;;;;;7.75;2.53;;;17.00;77.50;;;;;;5008934;28;20026;-68
2023/06/10 06:57:08;;;;;;;6.43;2.90;;;17.20;78.30;;;;;;5017813;28;20091;-66
2023/06/10 06:59:34;;;;;;;9.27;2.88;;;17.10;77.90;;;;;;5007480;28;20018;-68
2023/06/10 07:01:59;;;;;;;8.05;2.88;;;17.10;79.30;;;;;;5013522;28;20124;-66
2023/06/10 07:04:25;;;;;;;6.75;3.00;;;17.10;78.00;;;;;;5008154;28;20380;-67
2023/06/10 07:06:51;;;;;;;8.38;2.97;;;17.20;77.30;;;;;;5005883;28;20112;-67
2023/06/10 07:09:16;;;;;;;8.95;2.88;;;17.50;77.00;;;;;;5008150;28;20076;-67
2023/06/10 07:11:42;;;;;;;10.48;3.17;;;17.80;77.40;;;;;;5009034;28;20403;-68
2023/06/10 07:14:07;;;;;;;8.57;2.88;;;17.80;77.10;;;;;;5012041;28;20386;-66
2023/06/10 07:16:33;;;;;;;9.45;2.53;;;17.80;76.20;;;;;;5007682;28;20366;-66
2023/06/10 07:18:58;;;;;;;8.55;2.67;;;18.00;75.80;;;;;;5005392;28;20243;-68
2023/06/10 07:21:24;;;;;;;6.18;2.58;;;18.20;75.00;;;;;;5024776;28;20385;-66
2023/06/10 07:23:52;;;;;;;7.38;2.58;;;18.30;74.00;;;;;;5003203;28;20158;-67
2023/06/10 07:26:17;;;;;;;11.43;3.30;;;18.80;75.90;;;;;;5006196;28;20025;-67
2023/06/10 07:28:43;;;;;;;9.93;2.92;;;19.00;72.30;;;;;;4998746;28;20042;-67
2023/06/10 07:31:09;;;;;;;7.75;2.78;;;18.70;73.30;;;;;;5006436;28;20403;-67
2023/06/10 07:33:34;;;;;;;7.90;2.60;;;18.60;73.50;;;;;;5001811;28;20034;-66
2023/06/10 07:36:00;;;;;;;7.68;2.80;;;19.20;73.40;;;;;;5007120;28;20126;-67
2023/06/10 07:38:26;;;;;;;10.07;2.85;;;19.20;71.80;;;;;;4999918;28;20033;-67
2023/06/10 07:40:52;;;;;;;9.82;2.65;;;19.50;72.90;;;;;;4998894;28;20037;-67
2023/06/10 07:43:18;;;;;;;9.55;2.80;;;19.60;69.90;;;;;;5006889;28;20392;-67
2023/06/10 07:45:43;;;;;;;10.98;3.08;;;19.60;70.50;;;;;;5004611;28;20522;-69
2023/06/10 07:48:09;;;;;;;8.82;2.65;;;19.50;70.00;;;;;;5022880;28;20370;-67
2023/06/10 07:50:35;;;;;;;10.20;2.97;;;20.00;71.00;;;;;;5005461;28;20036;-68
2023/06/10 07:53:01;;;;;;;9.63;2.47;;;20.00;70.50;;;;;;5002090;28;20116;-66
2023/06/10 07:55:26;;;;;;;9.82;2.63;;;20.20;70.90;;;;;;5001795;28;20042;-67
2023/06/10 07:57:52;;;;;;;8.15;2.45;;;20.50;69.00;;;;;;5006757;28;20022;-66
2023/06/10 08:00:18;;;;;;;5.90;2.45;;;20.60;68.40;;;;;;5004399;28;20184;-66
2023/06/10 08:02:44;;;;;;;6.75;2.55;;;20.70;68.80;;;;;;5002360;28;20442;-66
2023/06/10 08:05:09;;;;;;;10.10;2.78;;;21.00;66.60;;;;;;5006056;28;20038;-66
2023/06/10 08:07:35;;;;;;;7.95;2.78;;;21.50;66.30;;;;;;5003970;28;20414;-67
2023/06/10 08:10:01;;;;;;;8.13;2.50;;;21.70;65.10;;;;;;5007035;28;20117;-70
2023/06/10 08:12:27;;;;;;;7.93;2.55;;;21.90;65.40;;;;;;5001253;28;20080;-66
2023/06/10 08:14:52;;;;;;;9.10;2.30;;;21.80;63.70;;;;;;5000873;28;20426;-66
2023/06/10 08:17:17;;;;;;;7.15;2.30;;;22.00;65.30;;;;;;5005766;28;20077;-67
2023/06/10 08:19:43;;;;;;;6.47;2.55;;;21.70;64.50;;;;;;5005675;28;20369;-67
2023/06/10 08:22:09;;;;;;;8.88;2.50;;;22.20;64.40;;;;;;5003946;28;20078;-66
2023/06/10 08:24:35;;;;;;;7.32;2.35;;;22.40;63.50;;;;;;5004612;28;20030;-66
2023/06/10 08:27:00;;;;;;;5.15;2.03;;;22.70;61.60;;;;;;5006778;28;20029;-67
2023/06/10 08:29:26;;;;;;;5.93;2.60;;;22.60;60.70;;;;;;5004135;28;20112;-66
2023/06/10 08:31:51;;;;;;;8.20;2.25;;;22.50;60.40;;;;;;5004599;28;20128;-69
2023/06/10 08:34:17;;;;;;;7.00;2.45;;;22.50;61.50;;;;;;5002390;28;20058;-66
2023/06/10 08:36:44;;;;;;;5.88;2.10;;;22.70;61.00;;;;;;5006335;28;20366;-68
2023/06/10 08:39:10;;;;;;;6.93;2.70;;;22.60;59.60;;;;;;4999708;28;20029;-66
2023/06/10 08:41:40;;;;;;;7.90;2.50;;;23.00;61.90;;;;;;5001690;28;20398;-66
2023/06/10 08:44:12;;;;;;;7.65;2.42;;;23.00;59.50;;;;;;5005183;28;20338;-66
2023/06/10 08:46:42;;;;;;;6.78;2.50;;;23.20;60.90;;;;;;5000261;28;20081;-66
2023/06/10 08:49:07;;;;;;;7.53;2.00;;;23.30;59.20;;;;;;5006793;28;20071;-66
2023/06/10 08:51:35;;;;;;;6.40;2.42;;;23.20;60.00;;;;;;5020900;28;20125;-68
2023/06/10 08:54:11;;;;;;;6.72;1.95;;;22.60;59.40;;;;;;5012895;28;20108;-66
2023/06/10 08:56:40;;;;;;;7.68;2.65;;;23.30;57.70;;;;;;5005910;28;20457;-66
2023/06/10 08:59:05;;;;;;;7.28;2.60;;;23.30;57.80;;;;;;5005893;28;20042;-68
2023/06/10 09:01:31;;;;;;;5.45;2.38;;;23.70;58.60;;;;;;5004074;28;20033;-69
2023/06/10 09:03:59;;;;;;;7.53;2.65;;;23.80;58.50;;;;;;5006083;28;20480;-66
2023/06/10 09:06:25;;;;;;;6.13;2.20;;;24.00;56.20;;;;;;4996437;28;20133;-67
2023/06/10 09:08:51;;;;;;;8.40;2.10;;;24.40;56.60;;;;;;4997330;28;20145;-66
2023/06/10 09:11:16;;;;;;;6.57;2.20;;;24.10;58.40;;;;;;5013367;28;20037;-67
2023/06/10 09:13:42;;;;;;;10.02;2.33;;;24.40;55.90;;;;;;5016198;28;20118;-66
2023/06/10 09:16:08;;;;;;;5.68;2.08;;;24.50;56.60;;;;;;5004780;28;20088;-66
2023/06/10 09:18:34;;;;;;;6.70;2.03;;;25.00;55.60;;;;;;5005216;28;20819;-68
2023/06/10 09:21:00;;;;;;;6.32;2.13;;;24.80;55.20;;;;;;5009709;28;20072;-66
2023/06/10 09:23:26;;;;;;;9.90;2.30;;;24.80;55.60;;;;;;5014372;28;20030;-67
2023/06/10 09:25:58;;;;;;;7.47;2.13;;;25.30;55.90;;;;;;5016136;28;20439;-66
2023/06/10 09:28:24;;;;;;;8.30;2.55;;;24.90;53.40;;;;;;5015618;28;20365;-66
2023/06/10 09:31:00;;;;;;;6.22;2.33;;;25.00;53.90;;;;;;5009464;28;20107;-67
2023/06/10 09:33:26;;;;;;;7.03;2.47;;;25.00;55.60;;;;;;5001541;28;20109;-67
2023/06/10 09:35:52;;;;;;;8.15;2.33;;;25.20;54.30;;;;;;5015590;28;20108;-66
2023/06/10 09:38:21;;;;;;;8.40;2.05;;;24.80;54.90;;;;;;4999693;28;20425;-66
2023/06/10 09:40:51;;;;;;;8.77;2.40;;;25.40;52.40;;;;;;5009171;28;20030;-66
2023/06/10 09:43:17;;;;;;;7.03;2.28;;;25.90;54.10;;;;;;5009626;28;20021;-66
2023/06/10 09:45:43;;;;;;;6.07;2.28;;;25.90;52.40;;;;;;5009723;28;20057;-67
2023/06/10 09:48:09;;;;;;;6.05;2.38;;;26.20;52.90;;;;;;5003207;28;20053;-66
2023/06/10 09:50:37;;;;;;;6.18;2.30;;;26.40;50.00;;;;;;5006172;28;20042;-67
2023/06/10 09:53:06;;;;;;;6.88;2.22;;;26.00;49.80;;;;;;5010599;28;20030;-67
2023/06/10 09:55:33;;;;;;;6.05;2.17;;;26.00;51.10;;;;;;5009508;28;20288;-71
2023/06/10 09:57:59;;;;;;;5.53;2.15;;;26.40;48.70;;;;;;5004526;28;20140;-67
2023/06/10 10:00:25;;;;;;;5.50;2.33;;;26.40;49.20;;;;;;5005133;28;20121;-67
2023/06/10 10:02:53;;;;;;;4.82;2.10;;;26.00;48.60;;;;;;5008439;28;20104;-68
2023/06/10 10:05:21;;;;;;;6.03;2.03;;;26.50;49.70;;;;;;5010316;28;20037;-67
2023/06/10 10:07:47;;;;;;;7.35;1.98;;;26.50;48.20;;;;;;5003381;28;20037;-68
2023/06/10 10:10:14;;;;;;;12.90;2.03;;;26.90;49.40;;;;;;5014119;28;20030;-68
2023/06/10 10:12:40;;;;;;;4.68;2.00;;;27.00;48.90;;;;;;5008725;28;20082;-67
2023/06/10 10:15:10;;;;;;;5.25;1.90;;;27.30;47.20;;;;;;5008269;28;20034;-68
2023/06/10 10:17:52;;;;;;;6.45;2.05;;;27.60;46.40;;;;;;5007075;28;20038;-67
2023/06/10 10:20:24;;;;;;;5.28;2.03;;;27.60;46.60;;;;;;5009426;28;20045;-67
2023/06/10 10:22:52;;;;;;;6.35;2.15;;;27.30;47.50;;;;;;5006507;28;20121;-67
2023/06/10 10:25:28;;;;;;;10.70;2.25;;;27.70;46.60;;;;;;5008777;28;20075;-69
2023/06/10 10:28:08;;;;;;;8.55;2.28;;;27.80;46.20;;;;;;5012737;28;20114;-68
2023/06/10 10:30:39;;;;;;;6.38;2.00;;;28.40;45.30;;;;;;5005982;28;20425;-67
2023/06/10 10:33:10;;;;;;;6.65;1.70;;;28.40;45.70;;;;;;5007268;28;20362;-68
2023/06/10 10:35:37;;;;;;;5.45;2.28;;;28.40;44.50;;;;;;5007982;28;20315;-67
2023/06/10 10:38:03;;;;;;;6.00;2.30;;;27.80;44.80;;;;;;5003286;28;20033;-67
2023/06/10 10:40:29;;;;;;;7.30;1.90;;;27.60;45.60;;;;;;5003595;28;20434;-69
2023/06/10 10:42:56;;;;;;;4.82;2.00;;;27.90;44.40;;;;;;5009697;28;20177;-67
2023/06/10 10:45:22;;;;;;;6.70;2.38;;;28.40;44.80;;;;;;5001971;28;20021;-68
2023/06/10 10:47:52;;;;;;;6.63;2.10;;;28.90;44.80;;;;;;5006407;28;20415;-67
2023/06/10 10:50:19;;;;;;;5.75;2.30;;;29.00;43.90;;;;;;5007546;28;20116;-68
2023/06/10 10:52:56;;;;;;;6.72;2.50;;;28.90;44.00;;;;;;5004590;28;20072;-69
2023/06/10 10:55:26;;;;;;;6.75;2.15;;;28.90;44.60;;;;;;5008448;28;20078;-67
2023/06/10 10:57:59;;;;;;;;;;;29.10;45.80;;;;;;4999180;28;20013;-67
2023/06/10 11:00:33;;;;;;;5.72;2.13;;;29.10;44.50;;;;;;5009349;28;19955;-69
2023/06/10 11:03:07;;;;;;;6.70;2.22;;;29.50;42.40;;;;;;5007063;28;20368;-68
2023/06/10 11:05:44;;;;;;;6.03;2.33;;;29.20;43.60;;;;;;5007581;28;20453;-68
2023/06/10 11:08:11;;;;;;;6.32;2.50;;;29.50;42.30;;;;;;5000483;28;20077;-68
2023/06/10 11:10:39;;;;;;;6.65;2.42;;;29.40;41.50;;;;;;5009860;28;20043;-70
2023/06/10 11:13:09;;;;;;;9.23;2.22;;;29.70;42.30;;;;;;5017027;28;20066;-67
2023/06/10 11:15:40;;;;;;;5.00;2.22;;;29.50;43.80;;;;;;5005904;28;20133;-67
2023/06/10 11:18:11;;;;;;;4.78;2.00;;;29.60;41.20;;;;;;5009357;28;20175;-69
2023/06/10 11:20:48;;;;;;;5.97;2.20;;;29.90;44.80;;;;;;5005318;28;20041;-68
2023/06/10 11:23:28;;;;;;;6.35;2.05;;;30.30;43.20;;;;;;5002645;28;20034;-72
2023/06/10 11:26:17;;;;;;;5.88;2.22;;;30.00;40.80;;;;;;5009775;28;20441;-67
2023/06/10 11:28:46;;;;;;;7.45;2.50;;;30.40;41.60;;;;;;5008033;28;20411;-67
2023/06/10 11:31:22;;;;;;;5.10;2.00;;;30.80;41.60;;;;;;5011719;28;20443;-68
2023/06/10 11:33:51;;;;;;;4.88;2.60;;;30.50;39.80;;;;;;4997809;28;20061;-68
2023/06/10 11:36:17;;;;;;;8.02;2.58;;;30.90;41.30;;;;;;5009594;28;20132;-68
2023/06/10 11:38:43;;;;;;;5.55;2.17;;;30.20;39.90;;;;;;5004212;28;20100;-67
2023/06/10 11:41:08;;;;;;;5.40;2.15;;;30.50;41.20;;;;;;5000896;28;20385;-67
2023/06/10 11:43:34;;;;;;;6.22;2.15;;;31.00;40.40;;;;;;5007827;28;20040;-67
2023/06/10 11:46:00;;;;;;;6.65;2.40;;;31.30;40.30;;;;;;5007182;28;20303;-67
2023/06/10 11:48:28;;;;;;;5.13;2.30;;;31.50;38.90;;;;;;5006603;28;20025;-68
2023/06/10 11:50:53;;;;;;;7.25;2.38;;;31.50;38.50;;;;;;5005554;28;20089;-68
2023/06/10 11:53:19;;;;;;;5.40;2.10;;;31.80;39.70;;;;;;5008284;28;20041;-68
2023/06/10 11:55:46;;;;;;;5.20;2.40;;;31.50;37.20;;;;;;5003741;28;20397;-68
2023/06/10 11:58:13;;;;;;;7.75;2.28;;;31.60;39.50;;;;;;5003510;28;20036;-67
2023/06/10 12:00:50;;;;;;;5.28;2.10;;;31.60;40.30;;;;;;5002725;28;20361;-70
2023/06/10 12:03:16;;;;;;;5.63;2.40;;;31.90;39.70;;;;;;5000618;28;20171;-69
2023/06/10 12:05:58;;;;;;;6.75;2.63;;;32.40;39.50;;;;;;5008676;28;20315;-67
2023/06/10 12:08:24;;;;;;;6.82;2.38;;;32.40;38.60;;;;;;5005721;28;20382;-69
2023/06/10 12:10:50;;;;;;;11.25;2.75;;;32.30;39.10;;;;;;5001537;28;20466;-68
2023/06/10 12:13:17;;;;;;;4.45;2.58;;;31.50;38.30;;;;;;5006612;28;20109;-69
2023/06/10 12:15:44;;;;;;;6.97;2.40;;;32.00;40.10;;;;;;5004796;28;20414;-68
2023/06/10 12:18:19;;;;;;;5.90;2.63;;;32.40;40.20;;;;;;5010248;28;20048;-68
2023/06/10 12:20:45;;;;;;;6.18;2.40;;;32.60;39.70;;;;;;5005442;28;20026;-69
2023/06/10 12:23:11;;;;;;;6.13;2.70;;;33.00;39.90;;;;;;5003018;28;20099;-70
2023/06/10 12:25:38;;;;;;;6.45;2.78;;;32.90;38.90;;;;;;5010613;28;20089;-68
2023/06/10 12:28:04;;;;;;;5.85;2.30;;;33.00;39.50;;;;;;5006410;28;20280;-68
2023/06/10 12:30:30;;;;;;;7.00;2.72;;;33.10;39.00;;;;;;5005615;28;20026;-67
2023/06/10 12:32:57;;;;;;;7.00;2.90;;;33.40;40.20;;;;;;5003619;28;20053;-72
2023/06/10 12:35:24;;;;;;;6.20;2.90;;;33.80;38.00;;;;;;5008704;28;20560;-68
2023/06/10 12:38:01;;;;;;;5.78;2.55;;;33.40;37.50;;;;;;4997782;28;20034;-67
2023/06/10 12:40:28;;;;;;;6.13;2.67;;;33.70;39.90;;;;;;4997077;28;20019;-69
2023/06/10 12:42:55;;;;;;;7.32;2.88;;;33.50;38.00;;;;;;5012271;28;20025;-67